Aktuální počasí v Česku a ve světě - METAR

Seznam meteostanic umístěných nejčasteji na letišti v ČR a ve světě

Vyhledat místa podle abecedy:
A B C D E F G H I J K L M N O P Q R S T U V W X Y Z

Filtrovat:

ID stanice:
a/nebo
Název místa (fulltext):
 
Místo (ID)Naposledy načteno 
Milešovka (Milesovka) 02.08.2021 15:00 UTC Zobrazit data
Místo: Milešovka
Teplota: 17 °C (pocitová: 14.9 °C)
Vítr: 4 m/s z(e) 280°
Počasí: skoro zataženo
Dohlednost: 65 km
Zákl. oblačnosti: 1/8 780 m;5/8 2400 m
Vlhkost: 73%
Mošnov (Ostrava/Mo) 02.08.2021 15:00 UTC Zobrazit data
Místo: Mošnov
Teplota: 17 °C (pocitová: 14.9 °C)
Vítr: 4 m/s z(e) 360°
Počasí: skoro zataženo
Dohlednost: 25 km
Zákl. oblačnosti: 5/8 1500 m;7/8 2400 m
Vlhkost: 83%
Macau (VMMC) 02.08.2021 15:00 UTC Zobrazit METAR
VMMC 021500Z 17007KT 9999 FEW015 SCT025 29/26 Q0999 NOSIG
Madeira (LPMA) 02.08.2021 15:00 UTC Zobrazit METAR
LPMA 021500Z 18007KT 120V220 9999 SCT016 24/19 Q1019
Madrid (LETO) 02.08.2021 15:00 UTC Zobrazit METAR
LETO 021500Z 24008KT 150V320 9999 FEW065 28/05 Q1014 NOSIG
Majuro Atoll (PKMA) Zatím nenačteno  
Malabo (FGSL) 02.08.2021 15:00 UTC Zobrazit METAR
FGSL 021500Z 25011KT 230V290 9999 SCT010 BKN050 28/25 Q1013 NOSIG
Malaga (LEMG) 02.08.2021 15:00 UTC Zobrazit METAR
LEMG 021500Z 14009KT 090V190 9999 FEW040 28/19 Q1013 NOSIG
Male (VRMM) 02.08.2021 08:00 UTC Zobrazit METAR
VRMM 020800Z 25008KT 9999 SCT017 BKN270 32/25 Q1011 NOSIG
Malmo (ESMS) 02.08.2021 14:50 UTC Zobrazit METAR
ESMS 021450Z 30017KT 9999 FEW037 20/09 Q1007
Malta (LMML) 02.08.2021 14:45 UTC Zobrazit METAR
LMML 021445Z 21006KT 180V280 CAVOK 37/12 Q1013 NOSIG
Managua (MNMG) 02.08.2021 15:00 UTC Zobrazit METAR
MNMG 021500Z 08008KT 9999 SCT022 30/23 Q1012 A2991 NOSIG
Manchester (EGCC) 02.08.2021 14:50 UTC Zobrazit METAR
EGCC 021450Z AUTO 30006KT 9999 FEW037 18/10 Q1014
Manila (RPLL) 02.08.2021 15:00 UTC Zobrazit METAR
RPLL 021500Z 22008KT 9999 FEW025 SCT100 27/25 Q1006 NOSIG RMK A2971
Manzini (FDMS) 02.05.2021 12:00 UTC Zobrazit METAR
FDMS 021200Z 18011KT 9999 SCT040 24/11 Q1025 NOSIG
Maputo (FQMA) 02.08.2021 10:00 UTC Zobrazit METAR
FQMA 021000Z 17014KT 9999 FEW025 25/16 Q1023 NOSIG
Maribor (LJMB) 02.08.2021 15:00 UTC Zobrazit METAR
LJMB 021500Z 17004KT 060V210 9999 SCT043 24/13 Q1014
Marrakech (GMMX) 02.08.2021 15:00 UTC Zobrazit METAR
GMMX 021500Z 09005KT 020V150 CAVOK 32/10 Q1013 NOSIG
Maseru (FXMM) 02.08.2021 14:00 UTC Zobrazit METAR
FXMM 021400Z 00000KT CAVOK 20/M11 Q1027 NOSIG
Mauritius (FIMP) 02.08.2021 15:00 UTC Zobrazit METAR
FIMP 021500Z 35003KT 9999 FEW018 20/14 Q1022
Melilla (GEML) 02.08.2021 15:00 UTC Zobrazit METAR
GEML 021500Z 01009KT 340V040 9999 FEW020 25/17 Q1013
Mexico City (MMMX) 02.08.2021 14:45 UTC Zobrazit METAR
MMMX 021445Z 00000KT 6SM SCT020 BKN220 18/12 A3045 NOSIG RMK SLP152 52008 951 8/508 HZY ISOL CU
Midway Atoll, Sand Island (PMDY) 02.08.2021 14:56 UTC Zobrazit METAR
PMDY 021456Z AUTO 15009KT 6SM BR CLR 26/23 A3011 RMK AO2 SLP195 T02560233 57006
Milan (LIMC) 02.08.2021 14:50 UTC Zobrazit METAR
LIMC 021450Z 18003KT 090V220 9999 SCT070 27/13 Q1012 NOSIG
Minsk (UMMM) 11.07.2016 14:00 UTC Zobrazit METAR
UMMM 111400Z ///// //// BKN040 BKN200 28/16 Q1009 NOSIG RMK QFE738
Mitilini (LGMT) 02.08.2021 14:50 UTC Zobrazit METAR
LGMT 021450Z 33008KT CAVOK 37/19 Q1008
Mogadishu (HCMM) 02.08.2021 14:00 UTC Zobrazit METAR
HCMM 021400Z 20013KT 9999 BKN025 27/20 Q1014
Monrovia (GLRB) 02.08.2021 15:00 UTC Zobrazit METAR
GLRB 021500Z 23009KT 9999 BKN018 30/23 Q1015 NOSIG
Montevideo (SUMU) 02.08.2021 15:00 UTC Zobrazit METAR
SUMU 021500Z 00000KT 4000 BR BKN005 07/07 Q1031 TEMPO BR
Montpellier/ Mediterranee (LFMT) 02.08.2021 15:00 UTC Zobrazit METAR
LFMT 021500Z AUTO 18012KT CAVOK 24/15 Q1014 TEMPO 23015G25KT
Moscow (UUEE) Zatím nenačteno  
Mostar (LQMO) 02.08.2021 15:00 UTC Zobrazit METAR
LQMO 021500Z 22009KT 180V280 CAVOK 34/10 Q1010
Mount Pleasant (EGYP) 02.08.2021 14:50 UTC Zobrazit METAR
EGYP 021450Z 28022KT CAVOK 08/01 Q1003 NOSIG
Munich (EDDM) 02.08.2021 14:50 UTC Zobrazit METAR
EDDM 021450Z 27007KT 220V310 CAVOK 23/12 Q1015 NOSIG
Muscat (OOMS) 02.08.2021 14:50 UTC Zobrazit METAR
OOMS 021450Z 06007KT 9000 FEW030 34/28 Q0996 NOSIG
Reklama

Reklama


Newslettter

Počasí na Váš email

Emaily jsou bez reklamy a bez spamu



Odhlásit newsletter



Kontaktujte nás

Kontaktujte Slunečno.cz

Kontaktujte provozovatele Slunecno.cz

Další české internetové stránky (nejen) o počasí najdete v katalogu TOPlist - weby o počasí nebo vyhledejte na internetu, co jste tu na Počasí Slunečno Slunečnu zatím nenašli:
Přidat mezzi oblíbené stránkyPřidat Slunečno.cz do oblíbených | Nastavit jako HOMEPAGENastavit Slunečno.cz jako HOMEPAGE

Posunout stránku nahoru Posunout stránku nahoru Posunout stránku nahoru
Reklama